Time;durP1;ratioP1;P1;durP2;ratioP2;P2;SDS_P1;SDS_P2;PMS_P1;PMS_P2;Temp;Humidity;BMP_temperature;BMP_pressure;BME280_temperature;BME280_humidity;BME280_pressure;Samples;Min_cycle;Max_cycle;Signal;HPM_P1;HPM_P2
2023/09/04 00:01:55;;;;;;;1.50;1.00;;;21.00;99.90;;;;;;5033059;28;20025;-34
2023/09/04 00:04:20;;;;;;;1.58;1.00;;;21.00;99.90;;;;;;5032814;28;20028;-34
2023/09/04 00:06:46;;;;;;;4.85;1.10;;;21.00;99.90;;;;;;5032276;28;20083;-36
2023/09/04 00:09:14;;;;;;;1.65;0.90;;;21.00;99.90;;;;;;5032961;28;20105;-37
2023/09/04 00:11:40;;;;;;;1.58;1.00;;;21.00;99.90;;;;;;5032958;28;20025;-35
2023/09/04 00:14:06;;;;;;;2.55;0.93;;;21.00;99.90;;;;;;5032749;28;20387;-34
2023/09/04 00:16:31;;;;;;;0.98;0.88;;;21.00;99.90;;;;;;5032943;28;20037;-34
2023/09/04 00:18:57;;;;;;;1.30;0.93;;;21.00;99.90;;;;;;5032492;28;20386;-35
2023/09/04 00:21:23;;;;;;;1.25;0.90;;;21.00;99.90;;;;;;5032662;28;20051;-34
2023/09/04 00:23:48;;;;;;;2.45;1.08;;;20.90;99.90;;;;;;5032605;28;20494;-35
2023/09/04 00:26:14;;;;;;;2.53;1.00;;;20.90;99.90;;;;;;5032805;28;20113;-34
2023/09/04 00:28:39;;;;;;;2.95;1.10;;;20.90;99.90;;;;;;5032476;28;20026;-34
2023/09/04 00:31:05;;;;;;;1.55;0.95;;;20.90;99.90;;;;;;5032375;28;20028;-35
2023/09/04 00:33:31;;;;;;;1.63;1.02;;;20.90;99.90;;;;;;5032891;28;20033;-34
2023/09/04 00:35:56;;;;;;;2.47;0.90;;;20.90;99.90;;;;;;5032488;28;20526;-34
2023/09/04 00:38:22;;;;;;;0.98;0.85;;;20.90;99.90;;;;;;5032364;28;20036;-34
2023/09/04 00:40:47;;;;;;;1.92;1.05;;;20.90;99.90;;;;;;5032099;28;20037;-35
2023/09/04 00:43:13;;;;;;;2.88;1.00;;;20.90;99.90;;;;;;5032283;28;20152;-36
2023/09/04 00:45:42;;;;;;;1.70;1.13;;;20.90;99.90;;;;;;5032217;28;20034;-34
2023/09/04 00:48:08;;;;;;;2.50;1.05;;;20.90;99.90;;;;;;5032193;28;20406;-36
2023/09/04 00:50:34;;;;;;;1.67;1.00;;;20.90;99.90;;;;;;5032022;28;20030;-35
2023/09/04 00:53:04;;;;;;;2.22;1.10;;;20.90;99.90;;;;;;5032193;28;20037;-34
2023/09/04 00:55:30;;;;;;;1.63;1.00;;;20.90;99.90;;;;;;5032104;28;20024;-37
2023/09/04 00:57:56;;;;;;;3.72;1.00;;;20.90;99.90;;;;;;5032035;28;20021;-34
2023/09/04 01:00:23;;;;;;;2.83;1.45;;;20.90;99.90;;;;;;5032032;28;20478;-34
2023/09/04 01:02:50;;;;;;;2.15;0.85;;;20.90;99.90;;;;;;5031962;28;20028;-34
2023/09/04 01:05:16;;;;;;;1.25;1.10;;;20.90;99.90;;;;;;5031938;28;20035;-34
2023/09/04 01:07:42;;;;;;;2.42;1.05;;;20.90;99.90;;;;;;5032013;28;20021;-34
2023/09/04 01:10:10;;;;;;;1.65;1.08;;;20.90;99.90;;;;;;5031737;28;20018;-34
2023/09/04 01:12:44;;;;;;;2.55;0.90;;;20.80;99.90;;;;;;5031856;28;20014;-34
2023/09/04 01:15:11;;;;;;;5.72;0.90;;;20.90;99.90;;;;;;5031741;28;20021;-34
2023/09/04 01:17:38;;;;;;;2.42;0.90;;;20.80;99.90;;;;;;5031674;28;20383;-36
2023/09/04 01:20:33;;;;;;;2.28;0.95;;;20.80;99.90;;;;;;5031450;28;20048;-34
2023/09/04 01:22:59;;;;;;;1.35;0.80;;;20.80;99.90;;;;;;5018910;28;20033;-34
2023/09/04 01:25:44;;;;;;;1.23;0.88;;;20.80;99.90;;;;;;5031687;28;20056;-34
2023/09/04 01:28:24;;;;;;;2.33;1.00;;;20.80;99.90;;;;;;5031638;28;20051;-34
2023/09/04 01:31:27;;;;;;;4.65;1.08;;;20.80;99.90;;;;;;5031354;28;20079;-37
2023/09/04 01:33:59;;;;;;;2.97;0.93;;;20.80;99.90;;;;;;5031350;28;20072;-34
2023/09/04 01:36:29;;;;;;;2.05;1.00;;;20.80;99.90;;;;;;5031557;28;20096;-34
2023/09/04 01:38:55;;;;;;;1.20;0.95;;;20.80;99.90;;;;;;5031899;28;20047;-34
2023/09/04 01:41:22;;;;;;;2.33;0.80;;;20.80;99.90;;;;;;5031233;28;20486;-35
2023/09/04 01:43:48;;;;;;;2.17;1.10;;;20.80;99.90;;;;;;5031185;28;20112;-34
2023/09/04 01:46:14;;;;;;;1.92;1.10;;;20.80;99.90;;;;;;5031888;28;20419;-34
2023/09/04 01:48:39;;;;;;;1.30;1.00;;;20.80;99.90;;;;;;5031556;28;20118;-34
2023/09/04 01:51:05;;;;;;;3.17;1.30;;;20.80;99.90;;;;;;5031573;28;20044;-34
2023/09/04 01:53:31;;;;;;;2.42;1.13;;;20.80;99.90;;;;;;5031243;28;20048;-34
2023/09/04 01:55:58;;;;;;;2.83;1.08;;;20.80;99.90;;;;;;5031197;28;20018;-37
2023/09/04 01:58:24;;;;;;;2.05;1.08;;;20.80;99.90;;;;;;5031229;28;20442;-34
2023/09/04 02:00:50;;;;;;;2.95;1.30;;;20.80;99.90;;;;;;5030951;28;20479;-34
2023/09/04 02:03:15;;;;;;;3.45;1.20;;;20.80;99.90;;;;;;5031045;28;20078;-34
2023/09/04 02:05:42;;;;;;;2.75;1.20;;;20.80;99.90;;;;;;5031126;28;20375;-34
2023/09/04 02:08:08;;;;;;;1.63;1.02;;;20.80;99.90;;;;;;5031398;28;20029;-34
2023/09/04 02:10:37;;;;;;;1.42;1.15;;;20.80;99.90;;;;;;5031149;28;20018;-34
2023/09/04 02:13:03;;;;;;;2.30;1.30;;;20.80;99.90;;;;;;5031100;28;20033;-40
2023/09/04 02:15:29;;;;;;;1.55;1.10;;;20.80;99.90;;;;;;5031024;28;20483;-34
2023/09/04 02:17:55;;;;;;;2.72;0.90;;;20.80;99.90;;;;;;5031028;28;20026;-34
2023/09/04 02:20:21;;;;;;;3.70;1.20;;;20.70;99.90;;;;;;5030825;28;20037;-34
2023/09/04 02:22:47;;;;;;;2.67;0.98;;;20.80;99.90;;;;;;5031122;28;20399;-34
2023/09/04 02:25:13;;;;;;;1.33;1.00;;;20.80;99.90;;;;;;5030939;28;20022;-35
2023/09/04 02:27:39;;;;;;;1.33;0.82;;;20.80;99.90;;;;;;5031067;28;20065;-36
2023/09/04 02:30:07;;;;;;;0.95;0.85;;;20.70;99.90;;;;;;5031631;28;20049;-34
2023/09/04 02:32:33;;;;;;;2.17;1.05;;;20.70;99.90;;;;;;5034840;28;20343;-34
2023/09/04 02:34:59;;;;;;;2.63;1.20;;;20.70;99.90;;;;;;5034754;28;20025;-35
2023/09/04 02:37:26;;;;;;;3.00;1.05;;;20.70;99.90;;;;;;5034795;28;20040;-34
2023/09/04 02:39:52;;;;;;;3.50;1.20;;;20.70;99.90;;;;;;5034406;28;20028;-37
2023/09/04 02:42:18;;;;;;;3.42;1.10;;;20.70;99.90;;;;;;5034602;28;20029;-34
2023/09/04 02:44:44;;;;;;;1.55;1.17;;;20.70;99.90;;;;;;5034269;28;20072;-34
2023/09/04 02:47:09;;;;;;;1.13;1.00;;;20.70;99.90;;;;;;5034538;28;20486;-34
2023/09/04 02:49:35;;;;;;;2.78;1.00;;;20.70;99.90;;;;;;5034307;28;20368;-36
2023/09/04 02:52:00;;;;;;;0.80;0.80;;;20.70;99.90;;;;;;5034494;28;20025;-34
2023/09/04 02:54:26;;;;;;;1.92;1.02;;;20.70;99.90;;;;;;5034352;28;20212;-34
2023/09/04 02:56:51;;;;;;;1.95;1.00;;;20.70;99.90;;;;;;5034374;28;20029;-34
2023/09/04 02:59:17;;;;;;;2.75;1.10;;;20.70;99.90;;;;;;5034038;28;20032;-36
2023/09/04 03:01:43;;;;;;;1.63;1.08;;;20.70;99.90;;;;;;5034260;28;20057;-34
2023/09/04 03:04:08;;;;;;;1.80;1.10;;;20.70;99.90;;;;;;5034141;28;20021;-34
2023/09/04 03:06:34;;;;;;;1.23;1.10;;;20.70;99.90;;;;;;5034174;28;20022;-34
2023/09/04 03:09:00;;;;;;;2.13;1.02;;;20.70;99.90;;;;;;5033912;28;20415;-34
2023/09/04 03:11:25;;;;;;;1.85;1.10;;;20.70;99.90;;;;;;5034064;28;20029;-37
2023/09/04 03:13:51;;;;;;;1.30;1.20;;;20.70;99.90;;;;;;5033936;28;20041;-36
2023/09/04 03:16:17;;;;;;;2.05;1.00;;;20.70;99.90;;;;;;5034048;28;20035;-34
2023/09/04 03:18:43;;;;;;;1.13;0.80;;;20.70;99.90;;;;;;5033879;28;20474;-34
2023/09/04 03:21:09;;;;;;;3.00;1.20;;;20.70;99.90;;;;;;5033700;28;20032;-35
2023/09/04 03:23:34;;;;;;;2.88;1.10;;;20.70;99.90;;;;;;5033776;28;20431;-34
2023/09/04 03:26:00;;;;;;;3.33;1.00;;;20.70;99.90;;;;;;5033807;28;20033;-36
2023/09/04 03:28:26;;;;;;;1.77;0.90;;;20.70;99.90;;;;;;5033684;28;20061;-34
2023/09/04 03:30:51;;;;;;;2.20;1.10;;;20.60;99.90;;;;;;5033584;28;20037;-34
2023/09/04 03:33:17;;;;;;;1.40;1.10;;;20.60;99.90;;;;;;5033734;28;20079;-34
2023/09/04 03:35:43;;;;;;;1.40;0.93;;;20.60;99.90;;;;;;5033630;28;20064;-36
2023/09/04 03:38:08;;;;;;;1.80;1.10;;;20.60;99.90;;;;;;5033605;28;20501;-37
2023/09/04 03:40:34;;;;;;;1.48;0.90;;;20.60;99.90;;;;;;5033283;28;20040;-34
2023/09/04 03:43:00;;;;;;;3.97;1.20;;;20.60;99.90;;;;;;5032329;28;20028;-34
2023/09/04 03:45:32;;;;;;;3.83;1.42;;;20.60;99.90;;;;;;5033775;28;20483;-35
2023/09/04 03:47:58;;;;;;;1.95;1.25;;;20.60;99.90;;;;;;5033511;28;20617;-36
2023/09/04 03:50:24;;;;;;;2.55;1.30;;;20.60;99.90;;;;;;5033197;28;20056;-36
2023/09/04 03:52:50;;;;;;;5.05;1.20;;;20.60;99.90;;;;;;5033227;28;20028;-35
2023/09/04 03:55:15;;;;;;;1.80;1.10;;;20.60;99.90;;;;;;5033247;28;20034;-36
2023/09/04 03:57:48;;;;;;;1.60;1.10;;;20.60;99.90;;;;;;5033184;28;20502;-35
2023/09/04 04:00:17;;;;;;;2.13;1.20;;;20.60;99.90;;;;;;5032841;28;20053;-36
2023/09/04 04:02:44;;;;;;;3.03;1.13;;;20.60;99.90;;;;;;5033335;28;20017;-35
2023/09/04 04:05:11;;;;;;;2.90;1.17;;;20.60;99.90;;;;;;5033093;28;20483;-35
2023/09/04 04:07:38;;;;;;;1.45;1.27;;;20.60;99.90;;;;;;5033001;28;20048;-35
2023/09/04 04:10:04;;;;;;;2.70;1.25;;;20.60;99.90;;;;;;5032726;28;20483;-35
2023/09/04 04:12:31;;;;;;;2.55;1.20;;;20.60;99.90;;;;;;5032885;28;20025;-36
2023/09/04 04:14:57;;;;;;;4.15;1.10;;;20.60;99.90;;;;;;5032821;28;20071;-36
2023/09/04 04:17:24;;;;;;;4.75;1.50;;;20.60;99.90;;;;;;5032916;28;20025;-36
2023/09/04 04:19:53;;;;;;;1.52;1.00;;;20.60;99.90;;;;;;5032670;28;20064;-36
2023/09/04 04:22:22;;;;;;;2.58;1.10;;;20.60;99.90;;;;;;5032662;28;20025;-36
2023/09/04 04:24:48;;;;;;;1.67;1.20;;;20.60;99.90;;;;;;5032542;28;20025;-35
2023/09/04 04:27:15;;;;;;;1.95;1.13;;;20.50;99.90;;;;;;5032989;28;20433;-36
2023/09/04 04:29:42;;;;;;;3.65;1.20;;;20.50;99.90;;;;;;5032624;28;20025;-36
2023/09/04 04:32:07;;;;;;;2.45;1.10;;;20.50;99.90;;;;;;5032595;28;20032;-35
2023/09/04 04:34:34;;;;;;;1.90;1.25;;;20.50;99.90;;;;;;5032464;28;20034;-36
2023/09/04 04:37:00;;;;;;;1.08;0.80;;;20.50;99.90;;;;;;5032457;28;20557;-36
2023/09/04 04:39:25;;;;;;;1.48;1.08;;;20.50;99.90;;;;;;5032141;28;20096;-36
2023/09/04 04:41:51;;;;;;;5.78;1.20;;;20.50;99.90;;;;;;5032375;28;20075;-36
2023/09/04 04:44:17;;;;;;;4.45;1.60;;;20.50;99.90;;;;;;5032192;28;20363;-36
2023/09/04 04:46:43;;;;;;;7.05;1.60;;;20.40;99.90;;;;;;5032451;28;20030;-36
2023/09/04 04:49:09;;;;;;;6.63;1.60;;;19.50;99.90;;;;;;5032088;28;20018;-36
2023/09/04 04:51:35;;;;;;;4.78;1.40;;;19.40;99.90;;;;;;5032269;28;20027;-37
2023/09/04 04:54:00;;;;;;;2.95;1.20;;;19.30;99.90;;;;;;5031840;28;20108;-38
2023/09/04 04:56:27;;;;;;;4.72;1.67;;;19.30;99.90;;;;;;5032274;28;20029;-37
2023/09/04 04:58:53;;;;;;;1.77;1.50;;;19.30;99.90;;;;;;5030725;28;20029;-37
2023/09/04 05:01:19;;;;;;;6.05;1.58;;;19.50;99.90;;;;;;5030849;28;20031;-38
2023/09/04 05:03:44;;;;;;;6.72;1.60;;;19.50;99.90;;;;;;5032083;28;20097;-37
2023/09/04 05:06:10;;;;;;;3.47;1.40;;;19.60;99.90;;;;;;5032086;28;20050;-37
2023/09/04 05:08:36;;;;;;;2.40;1.30;;;19.70;99.90;;;;;;5031872;28;20053;-36
2023/09/04 05:11:06;;;;;;;3.85;1.40;;;19.80;99.90;;;;;;5030411;28;20036;-37
2023/09/04 05:13:32;;;;;;;3.17;1.42;;;19.80;99.90;;;;;;5032020;28;20025;-37
2023/09/04 05:16:04;;;;;;;1.80;1.17;;;19.90;99.90;;;;;;5030616;28;20447;-39
2023/09/04 05:18:31;;;;;;;3.47;1.48;;;19.80;99.90;;;;;;5030692;28;20025;-37
2023/09/04 05:20:57;;;;;;;2.17;1.33;;;19.90;99.90;;;;;;5031501;28;20026;-39
2023/09/04 05:23:23;;;;;;;3.10;1.40;;;20.00;99.90;;;;;;5030598;28;20025;-37
2023/09/04 05:25:53;;;;;;;3.33;1.50;;;19.90;99.90;;;;;;5031662;28;20029;-36
2023/09/04 05:28:19;;;;;;;2.45;1.20;;;20.00;99.90;;;;;;5031905;28;20128;-39
2023/09/04 05:30:46;;;;;;;2.05;1.25;;;20.00;99.90;;;;;;5030174;28;20041;-36
2023/09/04 05:33:12;;;;;;;2.20;1.30;;;20.00;99.90;;;;;;5031780;28;20026;-38
2023/09/04 05:35:38;;;;;;;3.30;1.20;;;20.00;99.90;;;;;;5031529;28;20086;-37
2023/09/04 05:38:05;;;;;;;4.40;1.30;;;20.10;99.90;;;;;;5030500;28;20120;-40
2023/09/04 05:40:31;;;;;;;5.80;1.33;;;20.10;99.90;;;;;;5031455;28;20028;-43
2023/09/04 05:42:57;;;;;;;1.58;1.30;;;20.10;99.90;;;;;;5031524;28;20024;-35
2023/09/04 05:45:23;;;;;;;2.42;1.60;;;20.10;99.90;;;;;;5031368;28;20021;-36
2023/09/04 05:47:49;;;;;;;2.08;1.58;;;20.10;99.90;;;;;;5031450;28;20040;-35
2023/09/04 05:50:15;;;;;;;2.17;1.05;;;20.10;99.90;;;;;;5031065;28;20109;-35
2023/09/04 05:52:41;;;;;;;2.20;1.30;;;20.10;99.90;;;;;;5031308;28;20533;-35
2023/09/04 05:55:08;;;;;;;5.28;1.50;;;20.10;99.90;;;;;;5031414;28;20026;-35
2023/09/04 05:57:35;;;;;;;2.78;1.05;;;20.20;99.90;;;;;;5031334;28;20030;-34
2023/09/04 06:00:01;;;;;;;2.90;1.52;;;20.20;99.90;;;;;;5031182;28;20033;-39
2023/09/04 06:02:27;;;;;;;5.60;1.30;;;20.20;99.90;;;;;;5031180;28;20108;-40
2023/09/04 06:04:53;;;;;;;2.83;1.40;;;20.20;99.90;;;;;;5031784;28;20104;-38
2023/09/04 06:07:19;;;;;;;3.35;1.23;;;20.20;99.90;;;;;;5036829;28;20021;-38
2023/09/04 06:09:44;;;;;;;3.20;1.50;;;20.30;99.90;;;;;;5035087;28;20087;-37
2023/09/04 06:12:11;;;;;;;3.28;1.30;;;20.20;99.90;;;;;;5035233;28;20044;-35
2023/09/04 06:14:38;;;;;;;5.30;1.50;;;20.20;99.90;;;;;;5035068;28;20036;-37
2023/09/04 06:17:03;;;;;;;1.25;1.10;;;20.20;99.90;;;;;;5035173;28;20037;-36
2023/09/04 06:19:29;;;;;;;4.45;1.42;;;20.20;99.90;;;;;;5034682;28;20025;-39
2023/09/04 06:21:56;;;;;;;2.40;1.30;;;20.30;99.90;;;;;;5035039;28;20513;-35
2023/09/04 06:24:22;;;;;;;4.35;1.38;;;20.30;99.90;;;;;;5034921;28;20068;-36
2023/09/04 06:26:48;;;;;;;1.73;1.30;;;20.30;99.90;;;;;;5035007;28;20061;-39
2023/09/04 06:29:16;;;;;;;2.17;1.40;;;20.30;99.90;;;;;;5034646;28;20113;-40
2023/09/04 06:31:41;;;;;;;2.03;1.40;;;20.30;99.90;;;;;;5034849;28;20029;-36
2023/09/04 06:34:07;;;;;;;7.63;2.17;;;20.30;99.90;;;;;;5034590;28;20025;-36
2023/09/04 06:36:33;;;;;;;3.92;2.00;;;19.80;99.90;;;;;;5034795;28;20367;-36
2023/09/04 06:38:58;;;;;;;5.47;1.90;;;19.50;99.90;;;;;;5034614;28;20022;-37
2023/09/04 06:41:24;;;;;;;3.85;1.58;;;19.40;99.90;;;;;;5034569;28;20021;-38
2023/09/04 06:43:50;;;;;;;5.57;1.70;;;19.40;99.90;;;;;;5034424;28;20105;-37
2023/09/04 06:46:15;;;;;;;2.80;1.73;;;19.50;99.90;;;;;;5034634;28;20438;-38
2023/09/04 06:48:41;;;;;;;3.00;1.70;;;19.50;99.90;;;;;;5034411;28;20029;-40
2023/09/04 06:51:09;;;;;;;1.98;1.40;;;19.50;99.90;;;;;;5034309;28;20025;-36
2023/09/04 06:53:34;;;;;;;3.42;1.50;;;19.60;99.90;;;;;;5034401;28;20111;-39
2023/09/04 06:56:00;;;;;;;4.18;1.55;;;19.60;99.90;;;;;;5034376;28;20402;-42
2023/09/04 06:58:26;;;;;;;2.38;1.60;;;19.60;99.90;;;;;;5034415;28;20055;-39
2023/09/04 07:00:55;;;;;;;1.88;1.60;;;19.70;99.90;;;;;;5034561;28;20032;-40
2023/09/04 07:03:22;;;;;;;3.10;1.67;;;19.80;99.90;;;;;;5034205;28;20383;-34
2023/09/04 07:05:47;;;;;;;2.13;1.65;;;19.70;99.90;;;;;;5034297;28;20030;-37
2023/09/04 07:08:13;;;;;;;1.75;1.30;;;19.80;99.90;;;;;;5034155;28;20022;-42
2023/09/04 07:10:39;;;;;;;1.85;1.40;;;19.80;99.90;;;;;;5034023;28;20033;-36
2023/09/04 07:13:04;;;;;;;2.92;1.60;;;19.80;99.90;;;;;;5034128;28;20441;-36
2023/09/04 07:15:30;;;;;;;3.38;1.70;;;19.90;99.90;;;;;;5033740;28;20390;-36
2023/09/04 07:18:00;;;;;;;4.47;1.77;;;19.80;99.90;;;;;;5033959;28;20037;-36
2023/09/04 07:20:27;;;;;;;2.45;1.50;;;19.90;99.90;;;;;;5033734;28;20029;-39
2023/09/04 07:22:52;;;;;;;2.50;1.80;;;19.90;99.90;;;;;;5032689;28;20029;-38
2023/09/04 07:25:18;;;;;;;1.80;1.42;;;19.90;99.90;;;;;;5035001;28;20075;-38
2023/09/04 07:27:44;;;;;;;2.90;1.33;;;19.90;99.90;;;;;;5033867;28;20548;-37
2023/09/04 07:30:11;;;;;;;2.28;1.50;;;20.00;99.90;;;;;;5033479;28;20033;-41
2023/09/04 07:32:37;;;;;;;3.88;1.63;;;20.00;99.90;;;;;;5033725;28;20525;-38
2023/09/04 07:35:03;;;;;;;4.00;1.40;;;20.00;99.90;;;;;;5033599;28;20124;-39
2023/09/04 07:37:29;;;;;;;2.15;1.50;;;20.10;99.90;;;;;;5033639;28;20048;-37
2023/09/04 07:39:55;;;;;;;2.70;1.50;;;20.00;99.90;;;;;;5033390;28;20061;-38
2023/09/04 07:42:24;;;;;;;2.40;1.38;;;20.00;99.90;;;;;;5033535;28;20562;-38
2023/09/04 07:44:50;;;;;;;4.50;1.40;;;20.10;99.90;;;;;;5033228;28;20025;-34
2023/09/04 07:47:16;;;;;;;1.75;1.35;;;20.10;99.90;;;;;;5033460;28;20073;-34
2023/09/04 07:49:41;;;;;;;4.95;2.80;;;20.10;99.90;;;;;;5032214;28;20033;-37
2023/09/04 07:52:07;;;;;;;5.63;3.38;;;20.10;99.90;;;;;;5033384;28;20053;-36
2023/09/04 07:54:33;;;;;;;6.70;2.70;;;20.10;99.90;;;;;;5033138;28;20453;-36
2023/09/04 07:57:04;;;;;;;9.68;3.00;;;20.00;99.90;;;;;;5033389;28;20068;-35
2023/09/04 07:59:30;;;;;;;6.78;3.35;;;20.00;99.90;;;;;;5032032;28;20052;-36
2023/09/04 08:01:55;;;;;;;4.82;2.72;;;20.00;99.90;;;;;;5033088;28;20483;-38
2023/09/04 08:04:21;;;;;;;4.75;2.80;;;20.00;99.90;;;;;;5033023;28;20021;-35
2023/09/04 08:06:47;;;;;;;10.18;2.72;;;20.20;99.90;;;;;;5033164;28;20053;-35
2023/09/04 08:09:13;;;;;;;4.03;2.78;;;20.20;99.90;;;;;;5032777;28;20543;-37
2023/09/04 08:11:39;;;;;;;3.22;2.53;;;20.20;99.90;;;;;;5033022;28;20108;-38
2023/09/04 08:14:05;;;;;;;5.78;2.55;;;20.30;99.90;;;;;;5032713;28;20566;-36
2023/09/04 08:16:30;;;;;;;5.60;2.30;;;20.30;99.90;;;;;;5032934;28;20029;-36
2023/09/04 08:18:56;;;;;;;2.88;2.50;;;20.30;99.90;;;;;;5032602;28;20107;-38
2023/09/04 08:21:22;;;;;;;4.82;2.58;;;20.30;99.90;;;;;;5032628;28;20025;-36
2023/09/04 08:23:47;;;;;;;4.80;2.53;;;20.30;99.90;;;;;;5032674;28;20021;-36
2023/09/04 08:26:14;;;;;;;3.47;2.38;;;20.40;99.90;;;;;;5032758;28;20113;-36
2023/09/04 08:28:40;;;;;;;5.55;2.50;;;20.40;99.90;;;;;;5031984;28;20029;-36
2023/09/04 08:31:07;;;;;;;3.90;2.25;;;20.40;99.90;;;;;;5032693;28;20021;-39
2023/09/04 08:33:34;;;;;;;4.90;2.20;;;20.40;99.90;;;;;;5032502;28;20396;-36
2023/09/04 08:36:00;;;;;;;3.55;2.45;;;20.40;99.90;;;;;;5032578;28;20395;-36
2023/09/04 08:38:26;;;;;;;4.32;2.30;;;20.50;99.90;;;;;;5032511;28;20427;-39
2023/09/04 08:40:58;;;;;;;3.63;2.25;;;20.50;99.90;;;;;;5032158;28;20022;-39
2023/09/04 08:43:26;;;;;;;3.28;2.33;;;20.50;99.90;;;;;;5032695;28;20498;-39
2023/09/04 08:45:52;;;;;;;2.90;2.20;;;20.50;99.90;;;;;;5032233;28;20402;-39
2023/09/04 08:48:20;;;;;;;5.38;2.30;;;20.50;99.90;;;;;;5032280;28;20029;-37
2023/09/04 08:50:48;;;;;;;6.57;2.15;;;20.60;99.90;;;;;;5032092;28;20442;-37
2023/09/04 08:53:15;;;;;;;3.08;2.22;;;20.60;99.90;;;;;;5032206;28;20053;-36
2023/09/04 08:55:41;;;;;;;7.30;2.17;;;20.60;99.90;;;;;;5031995;28;20029;-36
2023/09/04 08:58:08;;;;;;;4.85;2.10;;;20.60;99.90;;;;;;5032089;28;20075;-37
2023/09/04 09:00:34;;;;;;;2.70;1.98;;;20.60;99.90;;;;;;5031804;28;20061;-41
2023/09/04 09:03:00;;;;;;;4.25;2.25;;;20.60;99.90;;;;;;5032005;28;20057;-41
2023/09/04 09:05:26;;;;;;;4.97;2.10;;;20.60;99.90;;;;;;5031933;28;20028;-39
2023/09/04 09:07:54;;;;;;;3.38;1.92;;;20.60;99.90;;;;;;5031928;28;20100;-39
2023/09/04 09:10:20;;;;;;;2.92;2.08;;;20.60;99.90;;;;;;5031609;28;20171;-39
2023/09/04 09:12:47;;;;;;;3.88;2.22;;;20.70;99.90;;;;;;5032040;28;20510;-41
2023/09/04 09:15:14;;;;;;;4.72;2.20;;;20.70;99.90;;;;;;5031738;28;20030;-39
2023/09/04 09:17:54;;;;;;;2.83;2.20;;;20.70;99.90;;;;;;5031753;28;20426;-41
2023/09/04 09:20:30;;;;;;;3.33;2.20;;;20.70;99.90;;;;;;5031378;28;20395;-36
2023/09/04 09:22:56;;;;;;;2.40;2.17;;;20.70;99.90;;;;;;5031888;28;20057;-38
2023/09/04 09:25:22;;;;;;;2.53;1.85;;;20.70;99.90;;;;;;5031617;28;20021;-36
2023/09/04 09:27:49;;;;;;;3.05;2.17;;;20.70;99.90;;;;;;5031763;28;20021;-36
2023/09/04 09:30:15;;;;;;;2.17;1.88;;;20.70;99.90;;;;;;5031330;28;20026;-41
2023/09/04 09:32:42;;;;;;;2.90;1.85;;;20.70;99.90;;;;;;5031460;28;20018;-42
2023/09/04 09:35:09;;;;;;;2.83;1.83;;;20.70;99.90;;;;;;5031395;28;20025;-39
2023/09/04 09:37:35;;;;;;;3.72;2.00;;;20.80;99.90;;;;;;5031925;28;20037;-41
2023/09/04 09:40:01;;;;;;;2.20;2.00;;;20.80;99.90;;;;;;5030341;28;20471;-39
2023/09/04 09:42:26;;;;;;;2.47;2.10;;;20.80;99.90;;;;;;5031345;28;20036;-41
2023/09/04 09:44:53;;;;;;;1.90;1.70;;;20.80;99.90;;;;;;5031722;28;20132;-41
2023/09/04 09:47:20;;;;;;;2.70;1.90;;;20.80;99.90;;;;;;5031339;28;20025;-39
2023/09/04 09:49:46;;;;;;;2.92;2.00;;;20.80;99.90;;;;;;5031062;28;20018;-38
2023/09/04 09:52:12;;;;;;;2.38;1.88;;;20.80;99.90;;;;;;5030091;28;20032;-40
2023/09/04 09:54:43;;;;;;;1.80;1.70;;;20.80;99.90;;;;;;5031421;28;20029;-38
2023/09/04 09:57:18;;;;;;;3.17;1.90;;;20.80;99.90;;;;;;5031254;28;20022;-35
2023/09/04 09:59:47;;;;;;;2.10;1.80;;;20.80;99.90;;;;;;5031038;28;20533;-34
2023/09/04 10:02:22;;;;;;;2.00;1.80;;;20.80;99.90;;;;;;5029799;28;20052;-39
2023/09/04 10:04:49;;;;;;;2.03;1.80;;;20.80;99.90;;;;;;5031413;28;20368;-35
2023/09/04 10:07:21;;;;;;;2.58;1.90;;;20.90;99.90;;;;;;5031324;28;20024;-34
2023/09/04 10:09:53;;;;;;;2.30;1.65;;;20.90;99.90;;;;;;5030927;28;20076;-40
2023/09/04 10:12:41;;;;;;;4.80;2.05;;;20.90;99.90;;;;;;5031215;28;20029;-34
2023/09/04 10:15:08;;;;;;;2.05;1.70;;;20.90;99.90;;;;;;5031290;28;20037;-35
2023/09/04 10:18:01;;;;;;;2.60;1.80;;;20.90;99.90;;;;;;5031123;28;20036;-35
2023/09/04 10:20:27;;;;;;;2.40;1.83;;;20.90;99.90;;;;;;5029501;28;20041;-34
2023/09/04 10:23:14;;;;;;;1.90;1.70;;;20.90;99.90;;;;;;5031507;28;20068;-34
2023/09/04 10:25:56;;;;;;;1.95;1.50;;;21.00;99.90;;;;;;5031262;28;20025;-35
2023/09/04 10:28:27;;;;;;;1.98;1.70;;;21.00;99.90;;;;;;5031031;28;20025;-38
2023/09/04 10:30:55;;;;;;;2.00;1.60;;;21.00;99.90;;;;;;5029494;28;20083;-34
2023/09/04 10:33:21;;;;;;;2.10;1.73;;;21.00;99.90;;;;;;5030907;28;20032;-35
2023/09/04 10:35:47;;;;;;;1.90;1.60;;;21.00;99.90;;;;;;5030776;28;20029;-34
2023/09/04 10:38:13;;;;;;;2.10;1.60;;;21.00;99.90;;;;;;5030949;28;20037;-39
2023/09/04 10:40:40;;;;;;;2.30;1.90;;;21.00;99.90;;;;;;5030605;28;20104;-39
2023/09/04 10:43:09;;;;;;;1.95;1.67;;;21.00;99.90;;;;;;5030893;28;20025;-36
2023/09/04 10:45:36;;;;;;;3.42;1.95;;;21.00;99.90;;;;;;5030563;28;20054;-36
2023/09/04 10:48:02;;;;;;;2.25;1.70;;;21.00;99.90;;;;;;5030704;28;20032;-37
2023/09/04 10:50:35;;;;;;;2.42;1.90;;;21.10;99.90;;;;;;5030627;28;20033;-34
2023/09/04 10:53:04;;;;;;;2.22;1.80;;;21.10;99.90;;;;;;5034688;28;20079;-36
2023/09/04 10:55:31;;;;;;;2.53;1.83;;;21.10;99.90;;;;;;5034427;28;20049;-34
2023/09/04 10:58:05;;;;;;;2.10;1.73;;;21.10;99.90;;;;;;5034363;28;20060;-35
2023/09/04 11:00:40;;;;;;;2.00;1.75;;;21.10;99.90;;;;;;5034097;28;20021;-34
2023/09/04 11:03:20;;;;;;;1.52;1.38;;;21.10;99.90;;;;;;5034375;28;20060;-35
2023/09/04 11:06:07;;;;;;;3.08;1.75;;;21.10;99.90;;;;;;5034176;28;20479;-36
2023/09/04 11:08:38;;;;;;;2.45;1.75;;;21.10;99.90;;;;;;5034632;28;20033;-36
2023/09/04 11:11:06;;;;;;;2.38;1.77;;;21.10;99.90;;;;;;5033847;28;20025;-36
2023/09/04 11:13:39;;;;;;;2.38;1.60;;;21.10;99.90;;;;;;5034305;28;20025;-36
2023/09/04 11:16:06;;;;;;;4.07;1.55;;;21.10;99.90;;;;;;5034146;28;20486;-36
2023/09/04 11:18:36;;;;;;;2.67;1.70;;;21.10;99.90;;;;;;5034167;28;20026;-36
2023/09/04 11:21:03;;;;;;;2.47;1.73;;;21.20;99.90;;;;;;5033730;28;20510;-36
2023/09/04 11:23:29;;;;;;;1.75;1.63;;;21.20;99.90;;;;;;5033802;28;20029;-36
2023/09/04 11:25:55;;;;;;;2.10;1.80;;;21.20;99.90;;;;;;5033832;28;20420;-36
2023/09/04 11:28:25;;;;;;;4.88;1.90;;;21.20;99.90;;;;;;5033815;28;20147;-36
2023/09/04 11:30:57;;;;;;;2.25;1.55;;;21.20;99.90;;;;;;5033643;28;20100;-39
2023/09/04 11:33:24;;;;;;;2.78;1.75;;;21.20;99.90;;;;;;5033746;28;20033;-37
2023/09/04 11:35:59;;;;;;;3.03;1.80;;;21.20;99.90;;;;;;5033707;28;20360;-39
2023/09/04 11:38:30;;;;;;;2.03;1.80;;;21.20;99.90;;;;;;5033652;28;20025;-37
2023/09/04 11:40:56;;;;;;;1.77;1.60;;;21.20;99.90;;;;;;5033423;28;20025;-38
2023/09/04 11:43:26;;;;;;;2.03;1.45;;;21.20;99.90;;;;;;5033540;28;20379;-38
2023/09/04 11:45:59;;;;;;;2.05;1.75;;;21.20;99.90;;;;;;5033471;28;20033;-38
2023/09/04 11:48:26;;;;;;;3.90;1.70;;;21.20;99.90;;;;;;5033463;28;20021;-38
2023/09/04 11:50:53;;;;;;;2.05;1.70;;;21.20;99.90;;;;;;5033264;28;20028;-37
2023/09/04 11:53:19;;;;;;;1.65;1.40;;;21.20;99.90;;;;;;5033415;28;20079;-39
2023/09/04 11:55:46;;;;;;;1.92;1.70;;;21.20;99.90;;;;;;5033322;28;20040;-38
2023/09/04 11:58:11;;;;;;;2.80;1.60;;;21.30;99.90;;;;;;5033244;28;20029;-37
2023/09/04 12:00:39;;;;;;;2.20;2.00;;;21.30;99.90;;;;;;5032964;28;20022;-37
2023/09/04 12:03:05;;;;;;;1.98;1.63;;;21.30;99.90;;;;;;5032165;28;20108;-37
2023/09/04 12:05:31;;;;;;;1.80;1.60;;;21.30;99.90;;;;;;5033177;28;20097;-37
2023/09/04 12:07:58;;;;;;;2.08;1.70;;;21.30;99.90;;;;;;5033432;28;20022;-40
2023/09/04 12:10:24;;;;;;;1.73;1.40;;;21.30;99.90;;;;;;5032891;28;20048;-38
2023/09/04 12:12:52;;;;;;;1.70;1.60;;;21.30;99.90;;;;;;5032965;28;20483;-38
2023/09/04 12:15:33;;;;;;;2.20;1.50;;;21.30;99.90;;;;;;5033245;28;20072;-37
2023/09/04 12:18:01;;;;;;;2.03;1.63;;;21.30;99.90;;;;;;5033240;28;20433;-38
2023/09/04 12:20:34;;;;;;;1.70;1.50;;;21.30;99.90;;;;;;5032645;28;20018;-38
2023/09/04 12:23:00;;;;;;;2.30;1.65;;;21.30;99.90;;;;;;5032863;28;20101;-37
2023/09/04 12:25:32;;;;;;;2.38;1.80;;;21.30;99.90;;;;;;5032645;28;20457;-38
2023/09/04 12:27:58;;;;;;;2.15;1.40;;;21.30;99.90;;;;;;5033316;28;20048;-38
2023/09/04 12:30:24;;;;;;;2.35;1.55;;;21.40;99.90;;;;;;5033922;28;20052;-37
2023/09/04 12:32:50;;;;;;;2.33;1.70;;;21.40;99.90;;;;;;5033635;28;20017;-41
2023/09/04 12:35:19;;;;;;;2.17;1.40;;;21.30;99.90;;;;;;5032658;28;20029;-37
2023/09/04 12:37:45;;;;;;;1.90;1.55;;;21.40;99.90;;;;;;5034342;28;20529;-38
2023/09/04 12:40:12;;;;;;;2.67;1.65;;;21.40;99.90;;;;;;5033797;28;20044;-37
2023/09/04 12:42:38;;;;;;;1.90;1.70;;;21.40;99.90;;;;;;5033104;28;20033;-37
2023/09/04 12:45:09;;;;;;;2.28;1.40;;;21.40;99.90;;;;;;5033286;28;20026;-38
2023/09/04 12:47:35;;;;;;;2.70;1.70;;;21.40;99.90;;;;;;5034128;28;20033;-37
2023/09/04 12:50:00;;;;;;;3.53;1.60;;;21.40;99.90;;;;;;5032103;28;20021;-37